• Join FlightAware (Why Join?)
  • Login
  • US Flag 
08:26AM EST


 

Airport Tracker/Info


-or-


 

Live Flight TrackerFlight Track Log ✈ UAL1141 ✈ 29-Sep-2013 ✈ KCLE - KEWR

Flight Track Log - Related Links

Times and Time Zones

All times are in EDT time to prevent confusion due to time zone crossing. See the UAL1141 flight status page for this flight to view local times or setup timezone preferences in your user account.

Time Position Orientation Groundspeed Altitude Reporting Facility
EDT Latitude Longitude Course Direction KTS MPH feet Rate Location/Type
03:21PM 41.3910 -81.8980 270° West 179 206 2,100  Level FlightAware
03:21PM 41.3920 -81.9130 275° West 197 227 2,300 1,320 Climbing FlightAware
03:22PM 41.3940 -81.9370 276° West 221 254 2,900 3,180 Climbing FlightAware
03:22PM 41.3980 -81.9750 278° West 227 261 4,400 4,380 Climbing FlightAware
03:22PM 41.4000 -81.9810 294° West 243 280 4,600 1,860 Climbing FlightAware
03:22PM 41.4160 -81.9990 320° Northwest 269 310 5,100 1,860 Climbing FlightAware
03:23PM 41.4350 -82.0030 351° North 284 327 5,800 2,160 Climbing FlightAware
03:23PM 41.4550 -81.9920 22° Northeast 297 342 6,700 2,760 Climbing FlightAware
03:23PM 41.4620 -81.9840 41° Northeast 297 342 7,200 4,740 Climbing FlightAware
03:24PM 41.4910 -81.9410 48° Northeast 281 323 9,400 4,140 Climbing FlightAware
03:24PM 41.5010 -81.9260 48° Northeast 286 329 9,900 1,680 Climbing FlightAware
03:24PM 41.5450 -81.8590 49° Northeast 349 402 10,800 1,800 Climbing FlightAware
03:25PM 41.5860 -81.7980 48° Northeast 371 427 12,100 2,280 Climbing FlightAware
03:26PM 41.6240 -81.7420 48° Northeast 385 443 13,400 2,160 Climbing FlightAware
03:26PM 41.6670 -81.6770 48° Northeast 404 465 14,600 2,280 Climbing FlightAware
03:27PM 41.7080 -81.6160 48° Northeast 410 472 16,000 2,160 Climbing FlightAware
03:27PM 41.7410 -81.5670 48° Northeast 417 480 17,000 1,920 Climbing FlightAware
03:28PM 41.7880 -81.4960 48° Northeast 427 491 18,300 2,100 Climbing FlightAware
03:28PM 41.8280 -81.4270 52° Northeast 431 496 19,600 2,340 Climbing FlightAware
03:29PM 41.8390 -81.3960 65° Northeast 428 493 20,100 2,340 Climbing FlightAware
03:29PM 41.8590 -81.2870 76° East 442 509 21,300 1,260 Climbing FlightAware
03:30PM 41.8600 -81.2040 89° East 462 532 21,700 1,140 Climbing FlightAware
03:30PM 41.8510 -81.1030 97° East 468 539 22,700 1,740 Climbing FlightAware
03:31PM 41.8390 -80.9730 97° East 476 548 23,800 1,500 Climbing FlightAware
03:31PM 41.8320 -80.8950 97° East 481 554 24,300 1,200 Climbing FlightAware
03:32PM 41.8220 -80.7950 98° East 491 565 25,000 1,080 Climbing FlightAware
03:33PM 41.8110 -80.6830 97° East 499 574 25,600 900 Climbing FlightAware
03:33PM 41.8030 -80.5960 97° East 504 580 26,100 1,320 Climbing FlightAware
03:34PM 41.7910 -80.4700 97° East 503 579 27,200 1,800 Climbing FlightAware
03:34PM 41.7800 -80.3630 98° East 498 573 28,200 1,500 Climbing FlightAware
03:35PM 41.7690 -80.2600 98° East 499 574 29,000 1,140 Climbing FlightAware
03:36PM 41.7580 -80.1510 98° East 503 579 29,600 1,260 Climbing FlightAware
03:36PM 41.7470 -80.0440 98° East 503 579 30,400 1,500 Climbing FlightAware
03:37PM 41.7310 -79.8890 98° East 497 572 31,700 1,560 Climbing FlightAware
03:38PM 41.7200 -79.7770 97° East 488 562 32,800 1,020 Climbing FlightAware
03:38PM 41.7080 -79.6660 98° East 487 560 33,000 120 Climbing FlightAware
03:39PM 41.6980 -79.5730 98° East 487 560 33,000  Level FlightAware
03:39PM 41.6850 -79.4560 98° East 486 559 33,000  Level FlightAware
03:40PM 41.6760 -79.3780 99° East 485 558 33,000  Level FlightAware
03:40PM 41.6630 -79.2610 98° East 484 557 33,000  Level FlightAware
03:41PM 41.6510 -79.1530 98° East 484 557 33,000  Level FlightAware
03:42PM 41.6390 -79.0450 98° East 484 557 33,000  Level FlightAware
03:42PM 41.6280 -78.9480 99° East 486 559 33,000  Level FlightAware
03:43PM 41.6160 -78.8360 98° East 487 560 33,000  Level FlightAware
03:43PM 41.6040 -78.7310 99° East 487 560 33,000  Level FlightAware
03:44PM 41.5920 -78.6320 99° East 487 560 33,000  Level FlightAware
03:45PM 41.5800 -78.5300 99° East 488 562 33,000  Level FlightAware
03:45PM 41.5640 -78.3980 99° East 489 563 33,000  Level FlightAware
03:46PM 41.5510 -78.2960 100° East 490 564 33,000  Level FlightAware
03:46PM 41.5410 -78.2080 99° East 489 563 33,000  Level FlightAware
03:47PM 41.5290 -78.1060 99° East 488 562 33,000 -1,140 Level FlightAware
03:48PM 41.5170 -78.0070 99° East 488 562 31,700 -1,740 Descending FlightAware
03:48PM 41.5030 -77.8960 100° East 484 557 31,000 -660 Descending FlightAware
03:49PM 41.4890 -77.7970 101° East 482 555 31,000  Level FlightAware
03:49PM 41.4740 -77.6940 101° East 482 555 31,000  Level FlightAware
03:50PM 41.4560 -77.5730 101° East 481 554 31,000  Level FlightAware
03:51PM 41.4400 -77.4630 101° East 482 555 31,000  Level FlightAware
03:51PM 41.4260 -77.3610 100° East 482 555 31,000  Level FlightAware
03:52PM 41.4070 -77.2320 101° East 481 554 31,000  Level FlightAware
03:53PM 41.3880 -77.1050 101° East 479 551 31,000  Level FlightAware
03:53PM 41.3740 -77.0120 101° East 474 545 31,000  Level FlightAware
03:54PM 41.3590 -76.9120 101° East 470 541 31,000 -540 Level FlightAware
03:54PM 41.3430 -76.8090 102° East 461 531 30,400 -2,100 Descending FlightAware
03:55PM 41.3270 -76.7340 106° East 471 542 28,700 -3,060 Descending FlightAware
03:56PM 41.3220 -76.7120 107° East 460 529 26,400 -2,760 Descending FlightAware
03:56PM 41.2590 -76.4770 110° East 443 510 24,500 -2,460 Descending FlightAware
03:57PM 41.2330 -76.3840 110° East 431 496 23,100 -2,280 Descending FlightAware
03:58PM 41.2150 -76.3160 109° East 422 486 22,000 -2,160 Descending FlightAware
03:58PM 41.1890 -76.2190 110° East 414 476 20,600 -2,160 Descending FlightAware
03:59PM 41.1670 -76.1380 110° East 406 467 19,300 -1,560 Descending FlightAware
03:59PM 41.1440 -76.0540 110° East 413 475 18,800 -1,080 Descending FlightAware
04:00PM 41.1230 -75.9760 110° East 413 475 18,100 -1,680 Descending FlightAware
04:01PM 41.0990 -75.8910 111° Southeast 403 464 16,900 -2,040 Descending FlightAware
04:01PM 41.0750 -75.8030 110° East 398 458 15,700 -1,980 Descending FlightAware
04:02PM 41.0540 -75.7270 110° East 389 448 14,600 -1,860 Descending FlightAware
04:02PM 41.0330 -75.6530 111° Southeast 381 438 13,600 -1,440 Descending FlightAware
04:03PM 41.0060 -75.5550 110° East 374 430 12,800 -660 Descending FlightAware
04:04PM 40.9850 -75.4820 111° Southeast 371 427 12,800 -120 Level FlightAware
04:04PM 40.9650 -75.4090 110° East 362 417 12,700 -1,140 Descending FlightAware
04:05PM 40.9480 -75.3460 110° East 357 411 11,500 -1,980 Descending FlightAware
04:05PM 40.9260 -75.2690 111° Southeast 341 392 10,500 -1,200 Descending FlightAware
04:06PM 40.9120 -75.2190 110° East 323 372 10,200 -600 Descending FlightAware
04:06PM 40.8980 -75.1690 110° East 296 341 10,000 -600 Descending FlightAware
04:07PM 40.8860 -75.1290 112° Southeast 285 328 9,700 -1,080 Descending FlightAware
04:07PM 40.8760 -75.0930 110° East 279 321 9,200 -1,440 Descending FlightAware
04:07PM 40.8700 -75.0710 110° East 278 320 8,900 -1,500 Descending FlightAware
04:08PM 40.8590 -75.0320 110° East 276 318 8,300 -1,440 Descending FlightAware
04:08PM 40.8490 -74.9980 111° Southeast 274 315 7,800 -1,440 Descending FlightAware
04:08PM 40.8400 -74.9660 110° East 273 314 7,300 -1,440 Descending FlightAware
04:09PM 40.8300 -74.9290 110° East 272 313 6,800 -720 Descending FlightAware
04:09PM 40.8210 -74.8990 112° Southeast 272 313 6,800  Level FlightAware
04:09PM 40.8140 -74.8710 108° East 276 318 6,800  Level FlightAware
04:10PM 40.8090 -74.8500 107° East 279 321 6,800 -780 Level FlightAware
04:10PM 40.8060 -74.8200 98° East 280 322 6,400 -1,200 Descending FlightAware
04:10PM 40.8030 -74.7860 97° East 275 316 6,000 -540 Descending FlightAware
04:11PM 40.8210 -74.7150 71° East 269 310 5,800 -240 Descending FlightAware
04:11PM 40.8310 -74.6950 57° Northeast 269 310 5,800  Level FlightAware
04:12PM 40.8440 -74.6690 57° Northeast 270 311 5,800  Level FlightAware
04:12PM 40.8580 -74.6400 57° Northeast 269 310 5,800  Level FlightAware
04:12PM 40.8720 -74.6100 58° Northeast 267 307 5,800 -840 Level FlightAware
04:13PM 40.8830 -74.5750 67° East 269 310 5,200 -1,260 Descending FlightAware
04:13PM 40.8910 -74.5490 68° East 268 308 4,900 -600 Descending FlightAware
04:13PM 40.9020 -74.5140 67° East 265 305 4,800 -180 Descending FlightAware
04:14PM 40.9125 -74.4780 69° East 264 304 4,800  Level FlightAware ADS-B
04:14PM 40.9181 -74.4594 68° East 264 304 4,800  Level FlightAware ADS-B
04:14PM 40.9199 -74.4521 72° East 260 299 4,800  Level FlightAware ADS-B
04:15PM 40.9300 -74.3970 76° East 230 265 4,800  Level FlightAware
04:15PM 40.9330 -74.3770 79° East 226 260 4,800  Level FlightAware
04:15PM 40.9370 -74.3510 78° East 220 253 4,800  Level FlightAware
04:16PM 40.9410 -74.3240 79° East 222 255 4,800 -780 Level FlightAware
04:16PM 40.9405 -74.3062 92° East 226 260 4,400 -1,680 Descending FlightAware ADS-B
04:16PM 40.9355 -74.2850 107° East 226 260 4,000 -1,200 Descending FlightAware ADS-B
04:16PM 40.9306 -74.2651 108° East 225 259 3,800 -420 Descending FlightAware ADS-B
04:16PM 40.9257 -74.2453 108° East 225 259 3,800  Level FlightAware ADS-B
04:17PM 40.9208 -74.2253 108° East 216 249 3,800  Level FlightAware ADS-B
04:17PM 40.9162 -74.2057 107° East 205 236 3,800  Level FlightAware ADS-B
04:17PM 40.9140 -74.1964 107° East 204 235 3,800  Level FlightAware ADS-B
04:17PM 40.9096 -74.1775 107° East 205 236 3,800  Level FlightAware ADS-B
04:18PM 40.9053 -74.1588 107° East 205 236 3,800  Level FlightAware ADS-B
04:18PM 40.8998 -74.1361 108° East 204 235 3,800 -300 Level FlightAware ADS-B
04:18PM 40.8986 -74.1326 114° Southeast 205 236 3,700 -1,740 Descending FlightAware ADS-B
04:18PM 40.8962 -74.1279 124° Southeast 204 235 3,600 -1,140 Descending FlightAware ADS-B
04:18PM 40.8918 -74.1217 133° Southeast 204 235 3,500 -1,080 Descending FlightAware ADS-B
04:19PM 40.8809 -74.1083 137° Southeast 203 234 3,200 -960 Descending FlightAware ADS-B
04:19PM 40.8750 -74.1012 138° Southeast 200 230 3,100 -900 Descending FlightAware ADS-B
04:19PM 40.8670 -74.0915 137° Southeast 198 228 2,900 -900 Descending FlightAware ADS-B
04:19PM 40.8606 -74.0841 139° Southeast 198 228 2,800 -480 Descending FlightAware ADS-B
04:19PM 40.8577 -74.0815 146° Southeast 199 229 2,800  Level FlightAware ADS-B
04:19PM 40.8537 -74.0791 156° South 203 234 2,800  Level FlightAware ADS-B
04:19PM 40.8506 -74.0781 166° South 205 236 2,800  Level FlightAware ADS-B
04:19PM 40.8476 -74.0775 171° South 206 237 2,800  Level FlightAware ADS-B
04:19PM 40.8366 -74.0775 180° South 207 238 2,800 -420 Level FlightAware ADS-B
04:20PM 40.8318 -74.0785 189° South 208 239 2,700 -720 Descending FlightAware ADS-B
04:20PM 40.8288 -74.0793 191° South 209 241 2,700 -900 Level FlightAware ADS-B
04:20PM 40.8251 -74.0807 196° South 209 241 2,600 -1,380 Descending FlightAware ADS-B
04:20PM 40.8206 -74.0830 201° Southwest 209 241 2,500 -1,140 Descending FlightAware ADS-B
04:20PM 40.7976 -74.0980 206° Southwest 206 237 2,000 -1,200 Descending FlightAware ADS-B
04:20PM 40.7851 -74.1059 206° Southwest 192 221 1,700 -1,020 Descending FlightAware ADS-B
04:21PM 40.7731 -74.1135 206° Southwest 182 209 1,500 -900 Descending FlightAware ADS-B
04:21PM 40.7636 -74.1196 206° Southwest 174 200 1,300 -900 Descending FlightAware ADS-B
04:21PM 40.7531 -74.1263 206° Southwest 162 186 1,100 -840 Descending FlightAware ADS-B
04:21PM 40.7488 -74.1290 205° Southwest 158 182 1,000 -1,020 Descending FlightAware ADS-B
04:21PM 40.7414 -74.1337 206° Southwest 157 181 800 -1,020 Descending FlightAware ADS-B
04:22PM 40.7289 -74.1416 206° Southwest 154 177 500 -960 Descending FlightAware ADS-B
04:23PM 40.7370 -74.1360 28° Northeast 153 176 -600 Descending FlightAware